sensor_id;sensor_type;location;lat;lon;timestamp;temperature;humidity
68922;DHT22;55959;51.244;5.724;2023-12-07T00:01:36;5.80;71.30
68922;DHT22;55959;51.244;5.724;2023-12-07T00:04:02;5.80;72.20
68922;DHT22;55959;51.244;5.724;2023-12-07T00:06:28;5.70;71.30
68922;DHT22;55959;51.244;5.724;2023-12-07T00:08:54;5.70;71.30
68922;DHT22;55959;51.244;5.724;2023-12-07T00:11:22;5.70;71.30
68922;DHT22;55959;51.244;5.724;2023-12-07T00:13:48;5.60;71.20
68922;DHT22;55959;51.244;5.724;2023-12-07T00:16:14;5.60;71.20
68922;DHT22;55959;51.244;5.724;2023-12-07T00:18:40;5.60;71.30
68922;DHT22;55959;51.244;5.724;2023-12-07T00:21:08;5.60;71.30
68922;DHT22;55959;51.244;5.724;2023-12-07T00:23:34;5.60;71.30
68922;DHT22;55959;51.244;5.724;2023-12-07T00:26:00;5.50;71.30
68922;DHT22;55959;51.244;5.724;2023-12-07T00:28:25;5.50;71.30
68922;DHT22;55959;51.244;5.724;2023-12-07T00:30:51;5.50;71.30
68922;DHT22;55959;51.244;5.724;2023-12-07T00:33:17;5.50;71.30
68922;DHT22;55959;51.244;5.724;2023-12-07T00:35:43;5.50;71.20
68922;DHT22;55959;51.244;5.724;2023-12-07T00:38:09;5.40;71.10
68922;DHT22;55959;51.244;5.724;2023-12-07T00:40:36;5.40;71.20
68922;DHT22;55959;51.244;5.724;2023-12-07T00:43:04;5.40;71.10
68922;DHT22;55959;51.244;5.724;2023-12-07T00:45:30;5.40;71.10
68922;DHT22;55959;51.244;5.724;2023-12-07T00:47:56;5.30;71.10
68922;DHT22;55959;51.244;5.724;2023-12-07T00:50:22;5.30;71.00
68922;DHT22;55959;51.244;5.724;2023-12-07T00:52:47;5.30;71.00
68922;DHT22;55959;51.244;5.724;2023-12-07T00:55:13;5.30;71.00
68922;DHT22;55959;51.244;5.724;2023-12-07T00:57:40;5.20;70.90
68922;DHT22;55959;51.244;5.724;2023-12-07T01:00:06;5.20;71.00
68922;DHT22;55959;51.244;5.724;2023-12-07T01:02:33;5.20;71.00
68922;DHT22;55959;51.244;5.724;2023-12-07T01:04:59;5.20;70.90
68922;DHT22;55959;51.244;5.724;2023-12-07T01:07:25;5.10;70.90
68922;DHT22;55959;51.244;5.724;2023-12-07T01:09:51;5.10;70.90
68922;DHT22;55959;51.244;5.724;2023-12-07T01:12:17;5.10;70.90
68922;DHT22;55959;51.244;5.724;2023-12-07T01:14:43;5.10;71.00
68922;DHT22;55959;51.244;5.724;2023-12-07T01:17:08;5.10;71.00
68922;DHT22;55959;51.244;5.724;2023-12-07T01:19:34;5.00;70.90
68922;DHT22;55959;51.244;5.724;2023-12-07T01:22:00;5.00;71.00
68922;DHT22;55959;51.244;5.724;2023-12-07T01:24:26;5.00;71.00
68922;DHT22;55959;51.244;5.724;2023-12-07T01:26:52;5.00;71.00
68922;DHT22;55959;51.244;5.724;2023-12-07T01:29:17;5.00;71.10
68922;DHT22;55959;51.244;5.724;2023-12-07T01:31:43;4.90;72.00
68922;DHT22;55959;51.244;5.724;2023-12-07T01:34:09;4.90;71.50
68922;DHT22;55959;51.244;5.724;2023-12-07T01:36:35;4.90;71.80
68922;DHT22;55959;51.244;5.724;2023-12-07T01:39:01;4.90;72.20
68922;DHT22;55959;51.244;5.724;2023-12-07T01:41:27;4.90;72.50
68922;DHT22;55959;51.244;5.724;2023-12-07T01:43:52;4.80;72.70
68922;DHT22;55959;51.244;5.724;2023-12-07T01:46:18;4.80;72.90
68922;DHT22;55959;51.244;5.724;2023-12-07T01:48:44;4.80;73.30
68922;DHT22;55959;51.244;5.724;2023-12-07T01:51:14;4.90;73.50
68922;DHT22;55959;51.244;5.724;2023-12-07T01:53:40;4.90;73.70
68922;DHT22;55959;51.244;5.724;2023-12-07T01:56:08;4.90;73.90
68922;DHT22;55959;51.244;5.724;2023-12-07T01:58:35;4.90;74.00
68922;DHT22;55959;51.244;5.724;2023-12-07T02:01:02;4.90;74.20
68922;DHT22;55959;51.244;5.724;2023-12-07T02:03:30;4.90;74.30
68922;DHT22;55959;51.244;5.724;2023-12-07T02:05:57;4.90;74.50
68922;DHT22;55959;51.244;5.724;2023-12-07T02:08:24;4.90;74.50
68922;DHT22;55959;51.244;5.724;2023-12-07T02:10:50;4.90;74.60
68922;DHT22;55959;51.244;5.724;2023-12-07T02:13:18;4.90;74.70
68922;DHT22;55959;51.244;5.724;2023-12-07T02:15:45;4.90;74.90
68922;DHT22;55959;51.244;5.724;2023-12-07T02:21:58;5.00;75.10
68922;DHT22;55959;51.244;5.724;2023-12-07T02:24:27;5.00;76.10
68922;DHT22;55959;51.244;5.724;2023-12-07T02:26:54;4.90;75.30
68922;DHT22;55959;51.244;5.724;2023-12-07T02:29:19;4.90;75.40
68922;DHT22;55959;51.244;5.724;2023-12-07T02:31:45;4.90;75.50
68922;DHT22;55959;51.244;5.724;2023-12-07T02:34:11;5.00;75.70
68922;DHT22;55959;51.244;5.724;2023-12-07T02:36:38;5.00;75.80
68922;DHT22;55959;51.244;5.724;2023-12-07T02:39:05;5.00;75.80
68922;DHT22;55959;51.244;5.724;2023-12-07T02:41:33;5.00;75.90
68922;DHT22;55959;51.244;5.724;2023-12-07T02:43:59;5.00;75.90
68922;DHT22;55959;51.244;5.724;2023-12-07T02:46:25;5.00;75.90
68922;DHT22;55959;51.244;5.724;2023-12-07T02:48:51;5.00;76.00
68922;DHT22;55959;51.244;5.724;2023-12-07T02:51:17;5.00;76.00
68922;DHT22;55959;51.244;5.724;2023-12-07T02:53:43;5.00;76.00
68922;DHT22;55959;51.244;5.724;2023-12-07T02:56:09;5.00;76.10
68922;DHT22;55959;51.244;5.724;2023-12-07T02:58:35;5.00;76.10
68922;DHT22;55959;51.244;5.724;2023-12-07T03:01:00;5.00;76.10
68922;DHT22;55959;51.244;5.724;2023-12-07T03:03:26;5.00;76.20
68922;DHT22;55959;51.244;5.724;2023-12-07T03:05:52;5.00;76.30
68922;DHT22;55959;51.244;5.724;2023-12-07T03:08:17;5.00;76.40
68922;DHT22;55959;51.244;5.724;2023-12-07T03:10:43;5.00;76.40
68922;DHT22;55959;51.244;5.724;2023-12-07T03:13:09;5.00;76.40
68922;DHT22;55959;51.244;5.724;2023-12-07T03:15:35;5.00;76.50
68922;DHT22;55959;51.244;5.724;2023-12-07T03:18:00;5.00;76.50
68922;DHT22;55959;51.244;5.724;2023-12-07T03:20:26;5.00;76.50
68922;DHT22;55959;51.244;5.724;2023-12-07T03:22:52;5.00;76.50
68922;DHT22;55959;51.244;5.724;2023-12-07T03:25:18;5.00;76.50
68922;DHT22;55959;51.244;5.724;2023-12-07T03:27:44;5.00;76.50
68922;DHT22;55959;51.244;5.724;2023-12-07T03:30:10;5.00;76.60
68922;DHT22;55959;51.244;5.724;2023-12-07T03:32:36;5.00;76.70
68922;DHT22;55959;51.244;5.724;2023-12-07T03:35:01;5.00;76.70
68922;DHT22;55959;51.244;5.724;2023-12-07T03:37:27;5.00;76.70
68922;DHT22;55959;51.244;5.724;2023-12-07T03:39:53;5.00;76.70
68922;DHT22;55959;51.244;5.724;2023-12-07T03:42:18;5.10;76.80
68922;DHT22;55959;51.244;5.724;2023-12-07T03:44:44;5.00;76.70
68922;DHT22;55959;51.244;5.724;2023-12-07T03:47:10;5.00;76.80
68922;DHT22;55959;51.244;5.724;2023-12-07T03:49:36;5.10;76.90
68922;DHT22;55959;51.244;5.724;2023-12-07T03:52:03;5.10;76.90
68922;DHT22;55959;51.244;5.724;2023-12-07T03:54:29;5.10;76.90
68922;DHT22;55959;51.244;5.724;2023-12-07T03:56:55;5.10;76.90
68922;DHT22;55959;51.244;5.724;2023-12-07T03:59:21;5.10;76.90
68922;DHT22;55959;51.244;5.724;2023-12-07T04:01:46;5.10;76.90
68922;DHT22;55959;51.244;5.724;2023-12-07T04:04:12;5.00;76.80
68922;DHT22;55959;51.244;5.724;2023-12-07T04:06:38;5.00;76.90
68922;DHT22;55959;51.244;5.724;2023-12-07T04:09:04;5.00;76.90
68922;DHT22;55959;51.244;5.724;2023-12-07T04:11:29;5.00;77.70
68922;DHT22;55959;51.244;5.724;2023-12-07T04:13:55;5.10;77.00
68922;DHT22;55959;51.244;5.724;2023-12-07T04:16:21;5.00;77.00
68922;DHT22;55959;51.244;5.724;2023-12-07T04:18:47;5.00;77.10
68922;DHT22;55959;51.244;5.724;2023-12-07T04:21:12;5.00;77.10
68922;DHT22;55959;51.244;5.724;2023-12-07T04:23:38;5.10;77.20
68922;DHT22;55959;51.244;5.724;2023-12-07T04:26:04;5.10;77.30
68922;DHT22;55959;51.244;5.724;2023-12-07T04:28:31;5.10;77.30
68922;DHT22;55959;51.244;5.724;2023-12-07T04:30:56;5.10;77.30
68922;DHT22;55959;51.244;5.724;2023-12-07T04:33:22;5.10;77.30
68922;DHT22;55959;51.244;5.724;2023-12-07T04:35:48;5.10;77.30
68922;DHT22;55959;51.244;5.724;2023-12-07T04:38:14;5.10;77.40
68922;DHT22;55959;51.244;5.724;2023-12-07T04:40:39;5.10;77.50
68922;DHT22;55959;51.244;5.724;2023-12-07T04:43:07;5.10;77.40
68922;DHT22;55959;51.244;5.724;2023-12-07T04:45:32;5.20;77.50
68922;DHT22;55959;51.244;5.724;2023-12-07T04:47:58;5.20;77.50
68922;DHT22;55959;51.244;5.724;2023-12-07T04:50:25;5.20;77.50
68922;DHT22;55959;51.244;5.724;2023-12-07T04:52:51;5.20;77.60
68922;DHT22;55959;51.244;5.724;2023-12-07T04:55:17;5.20;77.70
68922;DHT22;55959;51.244;5.724;2023-12-07T04:57:42;5.20;77.70
68922;DHT22;55959;51.244;5.724;2023-12-07T05:00:09;5.20;77.60
68922;DHT22;55959;51.244;5.724;2023-12-07T05:02:37;5.20;77.60
68922;DHT22;55959;51.244;5.724;2023-12-07T05:05:03;5.20;77.70
68922;DHT22;55959;51.244;5.724;2023-12-07T05:07:29;5.20;77.70
68922;DHT22;55959;51.244;5.724;2023-12-07T05:09:54;5.20;77.70
68922;DHT22;55959;51.244;5.724;2023-12-07T05:12:20;5.30;77.80
68922;DHT22;55959;51.244;5.724;2023-12-07T05:14:46;5.30;77.90
68922;DHT22;55959;51.244;5.724;2023-12-07T05:17:12;5.30;77.90
68922;DHT22;55959;51.244;5.724;2023-12-07T05:19:38;5.30;78.00
68922;DHT22;55959;51.244;5.724;2023-12-07T05:22:04;5.30;78.10
68922;DHT22;55959;51.244;5.724;2023-12-07T05:24:30;5.30;78.10
68922;DHT22;55959;51.244;5.724;2023-12-07T05:26:57;5.30;78.10
68922;DHT22;55959;51.244;5.724;2023-12-07T05:29:23;5.30;78.10
68922;DHT22;55959;51.244;5.724;2023-12-07T05:31:49;5.30;78.10
68922;DHT22;55959;51.244;5.724;2023-12-07T05:34:17;5.30;78.10
68922;DHT22;55959;51.244;5.724;2023-12-07T05:36:44;5.30;78.10
68922;DHT22;55959;51.244;5.724;2023-12-07T05:39:11;5.30;78.10
68922;DHT22;55959;51.244;5.724;2023-12-07T05:41:38;5.30;78.10
68922;DHT22;55959;51.244;5.724;2023-12-07T05:44:04;5.30;78.10
68922;DHT22;55959;51.244;5.724;2023-12-07T05:46:30;5.30;78.10
68922;DHT22;55959;51.244;5.724;2023-12-07T05:48:58;5.30;78.10
68922;DHT22;55959;51.244;5.724;2023-12-07T05:51:23;5.30;78.10
68922;DHT22;55959;51.244;5.724;2023-12-07T05:53:49;5.40;78.10
68922;DHT22;55959;51.244;5.724;2023-12-07T05:56:19;5.30;78.10
68922;DHT22;55959;51.244;5.724;2023-12-07T05:58:48;5.30;78.10
68922;DHT22;55959;51.244;5.724;2023-12-07T06:01:17;5.40;78.30
68922;DHT22;55959;51.244;5.724;2023-12-07T06:03:43;5.30;78.20
68922;DHT22;55959;51.244;5.724;2023-12-07T06:06:10;5.40;78.30
68922;DHT22;55959;51.244;5.724;2023-12-07T06:08:37;5.30;78.30
68922;DHT22;55959;51.244;5.724;2023-12-07T06:11:03;5.30;78.20
68922;DHT22;55959;51.244;5.724;2023-12-07T06:13:29;5.30;78.30
68922;DHT22;55959;51.244;5.724;2023-12-07T06:15:54;5.40;78.40
68922;DHT22;55959;51.244;5.724;2023-12-07T06:18:20;5.40;78.50
68922;DHT22;55959;51.244;5.724;2023-12-07T06:20:46;5.40;78.50
68922;DHT22;55959;51.244;5.724;2023-12-07T06:23:11;5.40;78.60
68922;DHT22;55959;51.244;5.724;2023-12-07T06:25:39;5.40;78.60
68922;DHT22;55959;51.244;5.724;2023-12-07T06:28:05;5.40;78.60
68922;DHT22;55959;51.244;5.724;2023-12-07T06:30:31;5.40;78.60
68922;DHT22;55959;51.244;5.724;2023-12-07T06:32:57;5.40;78.60
68922;DHT22;55959;51.244;5.724;2023-12-07T06:35:23;5.50;78.70
68922;DHT22;55959;51.244;5.724;2023-12-07T06:37:49;5.50;78.60
68922;DHT22;55959;51.244;5.724;2023-12-07T06:40:14;5.50;78.60
68922;DHT22;55959;51.244;5.724;2023-12-07T06:42:40;5.50;78.60
68922;DHT22;55959;51.244;5.724;2023-12-07T06:45:06;5.50;78.60
68922;DHT22;55959;51.244;5.724;2023-12-07T06:47:39;5.50;78.60
68922;DHT22;55959;51.244;5.724;2023-12-07T06:50:07;5.50;78.70
68922;DHT22;55959;51.244;5.724;2023-12-07T06:52:39;5.50;78.70
68922;DHT22;55959;51.244;5.724;2023-12-07T06:55:05;5.50;78.70
68922;DHT22;55959;51.244;5.724;2023-12-07T06:57:32;5.50;78.70
68922;DHT22;55959;51.244;5.724;2023-12-07T06:59:58;5.50;78.70
68922;DHT22;55959;51.244;5.724;2023-12-07T07:02:24;5.50;78.70
68922;DHT22;55959;51.244;5.724;2023-12-07T07:04:51;5.50;78.70
68922;DHT22;55959;51.244;5.724;2023-12-07T07:07:17;5.60;78.80
68922;DHT22;55959;51.244;5.724;2023-12-07T07:09:43;5.60;78.90
68922;DHT22;55959;51.244;5.724;2023-12-07T07:12:08;5.60;78.90
68922;DHT22;55959;51.244;5.724;2023-12-07T07:14:34;5.60;78.90
68922;DHT22;55959;51.244;5.724;2023-12-07T07:17:00;5.60;78.90
68922;DHT22;55959;51.244;5.724;2023-12-07T07:19:26;5.60;78.90
68922;DHT22;55959;51.244;5.724;2023-12-07T07:21:52;5.60;79.00
68922;DHT22;55959;51.244;5.724;2023-12-07T07:24:17;5.60;78.90
68922;DHT22;55959;51.244;5.724;2023-12-07T07:26:43;5.60;78.90
68922;DHT22;55959;51.244;5.724;2023-12-07T07:29:09;5.60;78.90
68922;DHT22;55959;51.244;5.724;2023-12-07T07:31:34;5.60;78.90
68922;DHT22;55959;51.244;5.724;2023-12-07T07:34:01;5.60;78.90
68922;DHT22;55959;51.244;5.724;2023-12-07T07:36:27;5.70;78.90
68922;DHT22;55959;51.244;5.724;2023-12-07T07:38:54;5.70;79.00
68922;DHT22;55959;51.244;5.724;2023-12-07T07:41:20;5.70;79.00
68922;DHT22;55959;51.244;5.724;2023-12-07T07:43:46;5.70;79.10
68922;DHT22;55959;51.244;5.724;2023-12-07T07:46:11;5.70;79.10
68922;DHT22;55959;51.244;5.724;2023-12-07T07:48:37;5.70;79.10
68922;DHT22;55959;51.244;5.724;2023-12-07T07:51:04;5.70;80.00
68922;DHT22;55959;51.244;5.724;2023-12-07T07:53:30;5.70;79.20
68922;DHT22;55959;51.244;5.724;2023-12-07T07:55:56;5.80;79.20
68922;DHT22;55959;51.244;5.724;2023-12-07T07:58:22;5.80;79.30
68922;DHT22;55959;51.244;5.724;2023-12-07T08:00:47;5.80;79.30
68922;DHT22;55959;51.244;5.724;2023-12-07T08:03:13;5.80;79.30
68922;DHT22;55959;51.244;5.724;2023-12-07T08:05:39;5.80;79.20
68922;DHT22;55959;51.244;5.724;2023-12-07T08:08:04;5.80;79.20
68922;DHT22;55959;51.244;5.724;2023-12-07T08:10:30;5.90;79.20
68922;DHT22;55959;51.244;5.724;2023-12-07T08:12:56;5.90;79.10
68922;DHT22;55959;51.244;5.724;2023-12-07T08:15:22;5.90;79.20
68922;DHT22;55959;51.244;5.724;2023-12-07T08:17:47;5.90;79.10
68922;DHT22;55959;51.244;5.724;2023-12-07T08:20:13;5.90;79.10
68922;DHT22;55959;51.244;5.724;2023-12-07T08:22:40;5.90;79.10
68922;DHT22;55959;51.244;5.724;2023-12-07T08:25:10;5.90;79.10
68922;DHT22;55959;51.244;5.724;2023-12-07T08:27:38;5.90;79.10
68922;DHT22;55959;51.244;5.724;2023-12-07T08:30:05;5.90;79.10
68922;DHT22;55959;51.244;5.724;2023-12-07T08:32:31;5.90;79.10
68922;DHT22;55959;51.244;5.724;2023-12-07T08:34:57;5.90;79.00
68922;DHT22;55959;51.244;5.724;2023-12-07T08:37:23;6.00;79.00
68922;DHT22;55959;51.244;5.724;2023-12-07T08:39:48;5.90;78.90
68922;DHT22;55959;51.244;5.724;2023-12-07T08:42:14;5.90;78.80
68922;DHT22;55959;51.244;5.724;2023-12-07T08:44:42;6.00;78.70
68922;DHT22;55959;51.244;5.724;2023-12-07T08:47:08;6.00;78.70
68922;DHT22;55959;51.244;5.724;2023-12-07T08:49:34;6.00;78.70
68922;DHT22;55959;51.244;5.724;2023-12-07T08:52:00;6.00;78.60
68922;DHT22;55959;51.244;5.724;2023-12-07T08:54:25;6.00;78.50
68922;DHT22;55959;51.244;5.724;2023-12-07T08:56:51;6.00;78.50
68922;DHT22;55959;51.244;5.724;2023-12-07T08:59:17;6.00;78.50
68922;DHT22;55959;51.244;5.724;2023-12-07T09:01:43;6.00;78.50
68922;DHT22;55959;51.244;5.724;2023-12-07T09:04:08;6.00;78.50
68922;DHT22;55959;51.244;5.724;2023-12-07T09:06:36;6.00;78.40
68922;DHT22;55959;51.244;5.724;2023-12-07T09:09:03;6.00;78.40
68922;DHT22;55959;51.244;5.724;2023-12-07T09:11:32;6.00;78.40
68922;DHT22;55959;51.244;5.724;2023-12-07T09:13:58;6.00;78.30
68922;DHT22;55959;51.244;5.724;2023-12-07T09:16:24;6.00;78.30
68922;DHT22;55959;51.244;5.724;2023-12-07T09:18:51;6.00;78.30
68922;DHT22;55959;51.244;5.724;2023-12-07T09:21:17;6.00;78.30
68922;DHT22;55959;51.244;5.724;2023-12-07T09:23:43;6.00;78.30
68922;DHT22;55959;51.244;5.724;2023-12-07T09:26:10;6.00;78.30
68922;DHT22;55959;51.244;5.724;2023-12-07T09:28:35;6.00;78.30
68922;DHT22;55959;51.244;5.724;2023-12-07T09:31:01;6.00;78.40
68922;DHT22;55959;51.244;5.724;2023-12-07T09:33:27;6.00;78.50
68922;DHT22;55959;51.244;5.724;2023-12-07T09:35:53;6.00;78.50
68922;DHT22;55959;51.244;5.724;2023-12-07T09:38:19;6.00;78.50
68922;DHT22;55959;51.244;5.724;2023-12-07T09:40:45;6.00;78.50
68922;DHT22;55959;51.244;5.724;2023-12-07T09:43:12;6.10;78.60
68922;DHT22;55959;51.244;5.724;2023-12-07T09:45:38;6.10;78.60
68922;DHT22;55959;51.244;5.724;2023-12-07T09:48:04;6.10;78.60
68922;DHT22;55959;51.244;5.724;2023-12-07T09:50:30;6.10;78.60
68922;DHT22;55959;51.244;5.724;2023-12-07T09:52:57;6.10;78.60
68922;DHT22;55959;51.244;5.724;2023-12-07T09:55:24;6.10;78.60
68922;DHT22;55959;51.244;5.724;2023-12-07T09:57:52;6.10;78.60
68922;DHT22;55959;51.244;5.724;2023-12-07T10:00:22;6.10;78.60
68922;DHT22;55959;51.244;5.724;2023-12-07T10:02:48;6.10;78.70
68922;DHT22;55959;51.244;5.724;2023-12-07T10:05:15;6.20;78.80
68922;DHT22;55959;51.244;5.724;2023-12-07T10:07:45;6.20;78.90
68922;DHT22;55959;51.244;5.724;2023-12-07T10:10:17;6.20;78.90
68922;DHT22;55959;51.244;5.724;2023-12-07T10:12:51;6.20;79.00
68922;DHT22;55959;51.244;5.724;2023-12-07T10:15:19;6.20;79.10
68922;DHT22;55959;51.244;5.724;2023-12-07T10:17:53;6.30;79.10
68922;DHT22;55959;51.244;5.724;2023-12-07T10:20:21;6.30;79.20
68922;DHT22;55959;51.244;5.724;2023-12-07T10:22:49;6.30;79.20
68922;DHT22;55959;51.244;5.724;2023-12-07T10:25:28;6.30;79.30
68922;DHT22;55959;51.244;5.724;2023-12-07T10:27:55;6.30;79.30
68922;DHT22;55959;51.244;5.724;2023-12-07T10:30:21;6.30;79.30
68922;DHT22;55959;51.244;5.724;2023-12-07T10:32:51;6.40;79.20
68922;DHT22;55959;51.244;5.724;2023-12-07T10:42:41;6.40;79.30
68922;DHT22;55959;51.244;5.724;2023-12-07T10:45:07;6.40;79.50
68922;DHT22;55959;51.244;5.724;2023-12-07T10:47:36;6.40;79.40
68922;DHT22;55959;51.244;5.724;2023-12-07T10:50:06;6.50;79.50
68922;DHT22;55959;51.244;5.724;2023-12-07T10:52:48;6.50;79.40
68922;DHT22;55959;51.244;5.724;2023-12-07T10:55:28;6.50;79.30
68922;DHT22;55959;51.244;5.724;2023-12-07T10:57:55;6.60;79.30
68922;DHT22;55959;51.244;5.724;2023-12-07T11:00:24;6.60;79.40
68922;DHT22;55959;51.244;5.724;2023-12-07T11:02:53;6.60;79.30
68922;DHT22;55959;51.244;5.724;2023-12-07T11:05:19;6.70;79.20
68922;DHT22;55959;51.244;5.724;2023-12-07T11:08:38;6.70;79.10
68922;DHT22;55959;51.244;5.724;2023-12-07T11:11:02;6.70;79.00
68922;DHT22;55959;51.244;5.724;2023-12-07T11:13:35;6.80;79.20
68922;DHT22;55959;51.244;5.724;2023-12-07T11:16:03;6.80;79.10
68922;DHT22;55959;51.244;5.724;2023-12-07T11:18:29;6.80;79.00
68922;DHT22;55959;51.244;5.724;2023-12-07T11:20:56;6.80;79.00
68922;DHT22;55959;51.244;5.724;2023-12-07T11:23:22;6.90;79.00
68922;DHT22;55959;51.244;5.724;2023-12-07T11:25:49;6.90;79.00
68922;DHT22;55959;51.244;5.724;2023-12-07T11:28:37;6.90;78.90
68922;DHT22;55959;51.244;5.724;2023-12-07T11:31:06;7.00;79.00
68922;DHT22;55959;51.244;5.724;2023-12-07T11:33:33;7.00;78.80
68922;DHT22;55959;51.244;5.724;2023-12-07T11:38:27;7.10;78.70
68922;DHT22;55959;51.244;5.724;2023-12-07T11:40:54;7.10;78.60
68922;DHT22;55959;51.244;5.724;2023-12-07T11:45:59;7.10;78.20
68922;DHT22;55959;51.244;5.724;2023-12-07T11:48:25;7.10;78.00
68922;DHT22;55959;51.244;5.724;2023-12-07T11:50:55;7.20;78.00
68922;DHT22;55959;51.244;5.724;2023-12-07T11:53:22;7.20;77.80
68922;DHT22;55959;51.244;5.724;2023-12-07T11:55:50;7.20;77.80
68922;DHT22;55959;51.244;5.724;2023-12-07T11:58:16;7.30;77.80
68922;DHT22;55959;51.244;5.724;2023-12-07T12:00:43;7.30;77.80
68922;DHT22;55959;51.244;5.724;2023-12-07T12:03:14;7.30;77.80
68922;DHT22;55959;51.244;5.724;2023-12-07T12:05:41;7.30;77.70
68922;DHT22;55959;51.244;5.724;2023-12-07T12:08:08;7.40;77.60
68922;DHT22;55959;51.244;5.724;2023-12-07T12:10:34;7.40;77.60
68922;DHT22;55959;51.244;5.724;2023-12-07T12:13:03;7.50;77.60
68922;DHT22;55959;51.244;5.724;2023-12-07T12:15:30;7.50;77.60
68922;DHT22;55959;51.244;5.724;2023-12-07T12:17:56;7.50;77.40
68922;DHT22;55959;51.244;5.724;2023-12-07T12:20:24;7.50;77.30
68922;DHT22;55959;51.244;5.724;2023-12-07T12:22:51;7.60;77.30
68922;DHT22;55959;51.244;5.724;2023-12-07T12:25:24;7.60;77.20
68922;DHT22;55959;51.244;5.724;2023-12-07T12:27:54;7.60;77.10
68922;DHT22;55959;51.244;5.724;2023-12-07T12:30:21;7.60;77.00
68922;DHT22;55959;51.244;5.724;2023-12-07T12:32:50;7.70;77.00
68922;DHT22;55959;51.244;5.724;2023-12-07T12:35:17;7.70;76.80
68922;DHT22;55959;51.244;5.724;2023-12-07T12:37:44;7.70;76.80
68922;DHT22;55959;51.244;5.724;2023-12-07T12:40:12;7.70;76.70
68922;DHT22;55959;51.244;5.724;2023-12-07T12:42:42;7.80;76.60
68922;DHT22;55959;51.244;5.724;2023-12-07T12:45:10;7.80;76.40
68922;DHT22;55959;51.244;5.724;2023-12-07T12:47:39;7.80;76.40
68922;DHT22;55959;51.244;5.724;2023-12-07T12:50:06;7.80;76.20
68922;DHT22;55959;51.244;5.724;2023-12-07T12:52:33;7.80;76.10
68922;DHT22;55959;51.244;5.724;2023-12-07T12:54:58;7.90;76.10
68922;DHT22;55959;51.244;5.724;2023-12-07T12:57:25;7.90;76.10
68922;DHT22;55959;51.244;5.724;2023-12-07T12:59:51;7.90;76.00
68922;DHT22;55959;51.244;5.724;2023-12-07T13:02:17;7.90;76.00
68922;DHT22;55959;51.244;5.724;2023-12-07T13:04:44;8.00;76.10
68922;DHT22;55959;51.244;5.724;2023-12-07T13:07:13;8.00;76.00
68922;DHT22;55959;51.244;5.724;2023-12-07T13:09:40;8.00;75.90
68922;DHT22;55959;51.244;5.724;2023-12-07T13:12:06;8.00;75.80
68922;DHT22;55959;51.244;5.724;2023-12-07T13:14:33;8.00;75.60
68922;DHT22;55959;51.244;5.724;2023-12-07T13:17:04;8.10;75.60
68922;DHT22;55959;51.244;5.724;2023-12-07T13:19:29;8.10;75.50
68922;DHT22;55959;51.244;5.724;2023-12-07T13:21:55;8.10;75.40
68922;DHT22;55959;51.244;5.724;2023-12-07T13:24:21;8.10;75.00
68922;DHT22;55959;51.244;5.724;2023-12-07T13:26:47;8.10;74.80
68922;DHT22;55959;51.244;5.724;2023-12-07T13:29:13;8.10;74.60
68922;DHT22;55959;51.244;5.724;2023-12-07T13:31:39;8.10;74.40
68922;DHT22;55959;51.244;5.724;2023-12-07T13:34:04;8.10;74.30
68922;DHT22;55959;51.244;5.724;2023-12-07T13:36:30;8.10;74.20
68922;DHT22;55959;51.244;5.724;2023-12-07T13:38:59;8.10;74.10
68922;DHT22;55959;51.244;5.724;2023-12-07T13:41:27;8.10;74.00
68922;DHT22;55959;51.244;5.724;2023-12-07T13:43:53;8.10;74.00
68922;DHT22;55959;51.244;5.724;2023-12-07T13:46:19;8.10;73.90
68922;DHT22;55959;51.244;5.724;2023-12-07T13:48:45;8.10;73.80
68922;DHT22;55959;51.244;5.724;2023-12-07T13:51:12;8.10;73.80
68922;DHT22;55959;51.244;5.724;2023-12-07T13:53:38;8.10;73.80
68922;DHT22;55959;51.244;5.724;2023-12-07T13:56:05;8.20;73.70
68922;DHT22;55959;51.244;5.724;2023-12-07T13:58:32;8.20;73.60
68922;DHT22;55959;51.244;5.724;2023-12-07T14:00:57;8.10;73.40
68922;DHT22;55959;51.244;5.724;2023-12-07T14:03:23;8.20;73.40
68922;DHT22;55959;51.244;5.724;2023-12-07T14:05:49;8.10;73.20
68922;DHT22;55959;51.244;5.724;2023-12-07T14:08:15;8.10;73.20
68922;DHT22;55959;51.244;5.724;2023-12-07T14:10:41;8.20;73.20
68922;DHT22;55959;51.244;5.724;2023-12-07T14:13:06;8.10;73.10
68922;DHT22;55959;51.244;5.724;2023-12-07T14:15:33;8.10;73.00
68922;DHT22;55959;51.244;5.724;2023-12-07T14:18:01;8.20;73.00
68922;DHT22;55959;51.244;5.724;2023-12-07T14:20:28;8.20;72.90
68922;DHT22;55959;51.244;5.724;2023-12-07T14:22:57;8.10;72.90
68922;DHT22;55959;51.244;5.724;2023-12-07T14:25:23;8.10;72.80
68922;DHT22;55959;51.244;5.724;2023-12-07T14:27:49;8.10;72.80
68922;DHT22;55959;51.244;5.724;2023-12-07T14:30:15;8.10;72.70
68922;DHT22;55959;51.244;5.724;2023-12-07T14:32:42;8.10;72.60
68922;DHT22;55959;51.244;5.724;2023-12-07T14:35:20;8.10;72.60
68922;DHT22;55959;51.244;5.724;2023-12-07T14:37:46;8.10;72.50
68922;DHT22;55959;51.244;5.724;2023-12-07T14:40:14;8.10;72.50
68922;DHT22;55959;51.244;5.724;2023-12-07T14:42:41;8.10;72.40
68922;DHT22;55959;51.244;5.724;2023-12-07T14:45:07;8.10;72.40
68922;DHT22;55959;51.244;5.724;2023-12-07T14:47:34;8.10;72.30
68922;DHT22;55959;51.244;5.724;2023-12-07T14:49:59;8.00;72.20
68922;DHT22;55959;51.244;5.724;2023-12-07T14:52:25;8.10;72.20
68922;DHT22;55959;51.244;5.724;2023-12-07T14:54:51;8.00;72.20
68922;DHT22;55959;51.244;5.724;2023-12-07T14:57:18;8.00;72.00
68922;DHT22;55959;51.244;5.724;2023-12-07T14:59:44;8.00;72.00
68922;DHT22;55959;51.244;5.724;2023-12-07T15:02:10;8.00;71.90
68922;DHT22;55959;51.244;5.724;2023-12-07T15:04:38;8.00;71.90
68922;DHT22;55959;51.244;5.724;2023-12-07T15:07:04;7.90;71.70
68922;DHT22;55959;51.244;5.724;2023-12-07T15:09:30;7.90;71.80
68922;DHT22;55959;51.244;5.724;2023-12-07T15:11:57;7.90;71.80
68922;DHT22;55959;51.244;5.724;2023-12-07T15:14:22;7.90;71.70
68922;DHT22;55959;51.244;5.724;2023-12-07T15:16:48;7.90;71.60
68922;DHT22;55959;51.244;5.724;2023-12-07T15:19:14;7.90;71.60
68922;DHT22;55959;51.244;5.724;2023-12-07T15:21:40;7.90;71.60
68922;DHT22;55959;51.244;5.724;2023-12-07T15:24:06;7.80;71.40
68922;DHT22;55959;51.244;5.724;2023-12-07T15:26:31;7.80;71.40
68922;DHT22;55959;51.244;5.724;2023-12-07T15:28:57;7.80;71.40
68922;DHT22;55959;51.244;5.724;2023-12-07T15:31:23;7.80;71.40
68922;DHT22;55959;51.244;5.724;2023-12-07T15:33:48;7.70;71.20
68922;DHT22;55959;51.244;5.724;2023-12-07T15:36:14;7.70;71.20
68922;DHT22;55959;51.244;5.724;2023-12-07T15:38:40;7.80;71.20
68922;DHT22;55959;51.244;5.724;2023-12-07T15:41:06;7.70;71.20
68922;DHT22;55959;51.244;5.724;2023-12-07T15:43:32;7.70;71.20
68922;DHT22;55959;51.244;5.724;2023-12-07T15:45:59;7.70;71.20
68922;DHT22;55959;51.244;5.724;2023-12-07T15:48:25;7.70;71.10
68922;DHT22;55959;51.244;5.724;2023-12-07T15:50:50;7.70;71.10
68922;DHT22;55959;51.244;5.724;2023-12-07T15:53:16;7.60;71.00
68922;DHT22;55959;51.244;5.724;2023-12-07T15:55:43;7.60;70.90
68922;DHT22;55959;51.244;5.724;2023-12-07T15:58:10;7.60;70.90